createdAt,value
2022-12-06T00:01:34.821Z,1.85
2022-12-06T00:04:04.942Z,1.80
2022-12-06T00:06:33.853Z,1.95
2022-12-06T00:09:01.657Z,1.88
2022-12-06T00:11:34.062Z,1.83
2022-12-06T00:14:06.681Z,1.92
2022-12-06T00:16:35.811Z,1.50
2022-12-06T00:19:03.126Z,1.80
2022-12-06T00:21:33.231Z,1.88
2022-12-06T00:24:06.016Z,2.00
2022-12-06T00:26:36.242Z,1.88
2022-12-06T00:29:03.974Z,1.33
2022-12-06T00:31:31.815Z,1.70
2022-12-06T00:33:58.925Z,2.08
2022-12-06T00:36:31.623Z,1.88
2022-12-06T00:39:05.984Z,2.25
2022-12-06T00:41:32.957Z,1.98
2022-12-06T00:43:59.820Z,2.53
2022-12-06T00:46:29.375Z,2.13
2022-12-06T00:48:57.918Z,2.00
2022-12-06T00:51:26.719Z,2.17
2022-12-06T00:53:53.763Z,2.35
2022-12-06T00:56:20.720Z,1.42
2022-12-06T00:58:47.625Z,1.70
2022-12-06T01:01:20.802Z,2.30
2022-12-06T01:03:53.302Z,2.15
2022-12-06T01:06:23.168Z,1.80
2022-12-06T01:08:50.473Z,1.83
2022-12-06T01:11:18.416Z,2.10
2022-12-06T01:13:45.333Z,2.17
2022-12-06T01:16:15.386Z,2.22
2022-12-06T01:18:44.335Z,1.80
2022-12-06T01:21:17.232Z,2.10
2022-12-06T01:23:45.556Z,1.92
2022-12-06T01:26:20.485Z,2.50
2022-12-06T01:28:47.482Z,2.05
2022-12-06T01:31:15.327Z,2.13
2022-12-06T01:33:43.390Z,2.00
2022-12-06T01:36:16.605Z,1.77
2022-12-06T01:38:43.506Z,1.92
2022-12-06T01:41:10.424Z,2.15
2022-12-06T01:43:43.405Z,1.70
2022-12-06T01:46:29.771Z,1.80
2022-12-06T01:49:12.268Z,1.73
2022-12-06T01:51:55.357Z,1.27
2022-12-06T01:54:24.138Z,1.60
2022-12-06T01:56:53.047Z,1.50
2022-12-06T01:59:22.096Z,1.77
2022-12-06T02:01:49.632Z,2.05
2022-12-06T02:04:17.944Z,2.00
2022-12-06T02:06:46.874Z,1.50
2022-12-06T02:09:15.919Z,1.60
2022-12-06T02:11:43.815Z,1.55
2022-12-06T02:14:16.237Z,1.50
2022-12-06T02:17:02.841Z,1.40
2022-12-06T02:20:08.411Z,1.85
2022-12-06T02:23:10.544Z,2.05
2022-12-06T02:26:11.218Z,2.08
2022-12-06T02:28:56.462Z,1.40
2022-12-06T02:31:30.835Z,1.75
2022-12-06T02:34:09.652Z,1.50
2022-12-06T02:37:18.717Z,1.77
2022-12-06T02:40:01.836Z,1.65
2022-12-06T02:42:35.839Z,1.67
2022-12-06T02:45:17.172Z,1.30
2022-12-06T02:47:45.610Z,1.52
2022-12-06T02:50:18.590Z,1.30
2022-12-06T02:52:50.308Z,1.73
2022-12-06T02:55:19.511Z,1.52
2022-12-06T02:57:49.033Z,1.42
2022-12-06T03:00:36.057Z,1.38
2022-12-06T03:03:36.293Z,1.20
2022-12-06T03:06:03.141Z,1.40
2022-12-06T03:08:32.917Z,1.23
2022-12-06T03:11:02.670Z,1.42
2022-12-06T03:13:51.702Z,1.70
2022-12-06T03:16:43.099Z,1.15
2022-12-06T03:19:20.954Z,1.23
2022-12-06T03:22:29.826Z,1.45
2022-12-06T03:24:58.221Z,1.20
2022-12-06T03:27:27.038Z,1.60
2022-12-06T03:29:59.311Z,1.35
2022-12-06T03:32:31.501Z,1.20
2022-12-06T03:35:02.946Z,1.67
2022-12-06T03:37:32.363Z,1.17
2022-12-06T03:40:10.120Z,1.23
2022-12-06T03:42:37.695Z,1.50
2022-12-06T03:45:05.316Z,1.48
2022-12-06T03:47:56.799Z,1.40
2022-12-06T03:50:33.392Z,1.73
2022-12-06T03:55:28.050Z,1.30
2022-12-06T03:57:55.093Z,1.42
2022-12-06T04:00:22.113Z,1.45
2022-12-06T04:02:49.055Z,1.55
2022-12-06T04:05:15.934Z,1.20
2022-12-06T04:07:42.866Z,1.90
2022-12-06T04:10:10.136Z,1.27
2022-12-06T04:12:55.382Z,1.30
2022-12-06T04:15:23.437Z,2.13
2022-12-06T04:18:08.823Z,1.20
2022-12-06T04:21:01.720Z,1.00
2022-12-06T04:23:29.470Z,1.40
2022-12-06T04:25:56.707Z,1.70
2022-12-06T04:28:42.298Z,2.28
2022-12-06T04:31:28.104Z,2.38
2022-12-06T04:34:13.616Z,2.30
2022-12-06T04:36:59.821Z,1.80
2022-12-06T04:39:26.845Z,2.07
2022-12-06T04:42:12.597Z,1.80
2022-12-06T04:44:39.565Z,1.40
2022-12-06T04:47:07.187Z,1.30
2022-12-06T04:49:35.374Z,2.08
2022-12-06T04:52:02.683Z,1.92
2022-12-06T04:54:30.405Z,2.35
2022-12-06T04:56:58.693Z,1.73
2022-12-06T04:59:26.860Z,1.60
2022-12-06T05:01:53.831Z,1.58
2022-12-06T05:04:21.434Z,2.15
2022-12-06T05:06:48.958Z,1.80
2022-12-06T05:09:16.108Z,1.60
2022-12-06T05:11:43.042Z,1.80
2022-12-06T05:14:10.013Z,1.48
2022-12-06T05:16:37.025Z,1.33
2022-12-06T05:19:04.166Z,1.58
2022-12-06T05:21:31.353Z,2.38
2022-12-06T05:23:58.741Z,2.50
2022-12-06T05:26:28.208Z,2.25
2022-12-06T05:28:56.026Z,2.33
2022-12-06T05:31:24.217Z,1.95
2022-12-06T05:33:52.050Z,1.63
2022-12-06T05:36:28.303Z,2.10
2022-12-06T05:38:56.942Z,2.00
2022-12-06T05:41:24.337Z,1.52
2022-12-06T05:43:51.374Z,1.52
2022-12-06T05:46:18.487Z,1.63
2022-12-06T05:48:45.742Z,2.40
2022-12-06T05:51:12.641Z,2.28
2022-12-06T05:53:40.911Z,1.80
2022-12-06T05:56:11.139Z,1.92
2022-12-06T05:58:38.639Z,2.03
2022-12-06T06:01:07.135Z,2.67
2022-12-06T06:03:34.488Z,1.88
2022-12-06T06:06:02.310Z,2.03
2022-12-06T06:08:30.000Z,2.20
2022-12-06T06:10:57.551Z,1.80
2022-12-06T06:13:24.618Z,2.00
2022-12-06T06:15:51.571Z,2.00
2022-12-06T06:18:19.512Z,2.28
2022-12-06T06:20:51.360Z,1.70
2022-12-06T06:23:19.604Z,2.35
2022-12-06T06:25:47.193Z,2.50
2022-12-06T06:28:14.479Z,2.30
2022-12-06T06:30:41.619Z,3.15
2022-12-06T06:33:09.057Z,2.28
2022-12-06T06:35:36.798Z,2.10
2022-12-06T06:38:04.186Z,2.67
2022-12-06T06:40:31.328Z,2.35
2022-12-06T06:42:58.448Z,2.30
2022-12-06T06:45:28.948Z,1.92
2022-12-06T06:47:56.067Z,2.20
2022-12-06T06:50:22.939Z,2.33
2022-12-06T06:52:49.971Z,1.92
2022-12-06T06:55:16.920Z,2.10
2022-12-06T06:57:44.415Z,2.53
2022-12-06T07:00:12.604Z,1.80
2022-12-06T07:02:39.748Z,1.63
2022-12-06T07:05:07.264Z,1.75
2022-12-06T07:07:34.227Z,1.50
2022-12-06T07:10:01.360Z,1.70
2022-12-06T07:12:28.573Z,2.00
2022-12-06T07:14:55.478Z,2.03
2022-12-06T07:17:22.361Z,1.88
2022-12-06T07:19:49.252Z,1.70
2022-12-06T07:22:16.258Z,1.92
2022-12-06T07:24:47.841Z,1.40
2022-12-06T07:27:17.728Z,1.95
2022-12-06T07:29:44.958Z,1.75
2022-12-06T07:32:11.781Z,2.15
2022-12-06T07:34:39.085Z,1.75
2022-12-06T07:37:06.656Z,1.63
2022-12-06T07:39:33.537Z,1.90
2022-12-06T07:42:18.909Z,1.50
2022-12-06T07:45:05.788Z,1.55
2022-12-06T07:47:38.874Z,1.60
2022-12-06T07:50:10.531Z,1.60
2022-12-06T07:52:41.990Z,1.47
2022-12-06T07:55:10.773Z,1.88
2022-12-06T07:57:43.106Z,1.40
2022-12-06T08:00:13.408Z,1.42
2022-12-06T08:02:40.352Z,2.15
2022-12-06T08:05:07.676Z,1.63
2022-12-06T08:07:34.726Z,1.42
2022-12-06T08:10:02.190Z,1.45
2022-12-06T08:12:32.895Z,1.40
2022-12-06T08:15:00.446Z,1.70
2022-12-06T08:17:29.567Z,1.35
2022-12-06T08:19:56.569Z,1.38
2022-12-06T08:22:23.476Z,1.52
2022-12-06T08:24:50.513Z,1.60
2022-12-06T08:27:17.366Z,1.48
2022-12-06T08:29:45.473Z,1.58
2022-12-06T08:32:12.686Z,1.40
2022-12-06T08:34:39.690Z,1.58
2022-12-06T08:37:06.583Z,2.00
2022-12-06T08:39:33.488Z,1.48
2022-12-06T08:42:02.772Z,1.42
2022-12-06T08:44:31.577Z,1.60
2022-12-06T08:47:00.949Z,1.67
2022-12-06T08:49:29.336Z,1.40
2022-12-06T08:51:56.463Z,1.65
2022-12-06T08:54:24.600Z,1.40
2022-12-06T08:56:52.155Z,1.80
2022-12-06T08:59:20.071Z,2.22
2022-12-06T09:01:47.477Z,2.42
2022-12-06T09:04:14.813Z,2.35
2022-12-06T09:06:43.845Z,2.42
2022-12-06T09:09:11.606Z,2.00
2022-12-06T09:11:39.948Z,1.95
2022-12-06T09:14:09.278Z,2.00
2022-12-06T09:16:36.734Z,2.10
2022-12-06T09:19:04.266Z,2.17
2022-12-06T09:21:31.962Z,2.10
2022-12-06T09:23:59.402Z,2.28
2022-12-06T09:26:27.714Z,2.17
2022-12-06T09:28:56.013Z,2.22
2022-12-06T09:31:23.602Z,2.60
2022-12-06T09:33:50.670Z,2.60
2022-12-06T09:36:24.244Z,2.80
2022-12-06T09:39:18.572Z,3.05
2022-12-06T09:42:00.402Z,2.45
2022-12-06T09:44:52.348Z,3.33
2022-12-06T10:17:52.577Z,1.30
2022-12-06T10:20:19.678Z,1.10
2022-12-06T10:23:05.879Z,1.40
2022-12-06T10:26:10.244Z,1.77
2022-12-06T10:28:50.257Z,1.73
2022-12-06T10:31:46.923Z,1.70
2022-12-06T10:34:51.385Z,1.97
2022-12-06T10:37:24.136Z,1.33
2022-12-06T10:40:06.945Z,1.75
2022-12-06T10:42:54.221Z,1.73
2022-12-06T10:48:38.926Z,1.67
2022-12-06T10:51:15.152Z,1.90
2022-12-06T10:53:51.405Z,2.63
2022-12-06T10:56:29.963Z,1.85
2022-12-06T10:59:04.694Z,2.35
2022-12-06T11:01:41.643Z,2.22
2022-12-06T11:04:17.048Z,2.42
2022-12-06T11:06:55.043Z,2.58
2022-12-06T11:09:39.020Z,2.10
2022-12-06T11:12:32.333Z,2.35
2022-12-06T11:15:03.618Z,2.08
2022-12-06T11:17:34.902Z,2.53
2022-12-06T11:20:25.779Z,4.68
2022-12-06T11:22:55.250Z,2.40
2022-12-06T11:25:40.748Z,2.67
2022-12-06T11:28:35.828Z,3.08
2022-12-06T11:31:18.792Z,2.92
2022-12-06T11:33:46.540Z,2.40
2022-12-06T11:36:13.463Z,2.80
2022-12-06T11:38:43.681Z,2.80
2022-12-06T11:41:21.120Z,3.30
2022-12-06T11:43:48.928Z,3.97
2022-12-06T11:46:16.076Z,6.20
2022-12-06T11:48:43.624Z,4.53
2022-12-06T11:51:25.965Z,4.00
2022-12-06T11:54:26.494Z,3.70
2022-12-06T11:56:57.306Z,3.22
2022-12-06T11:59:29.648Z,3.13
2022-12-06T12:02:02.019Z,3.90
2022-12-06T12:04:32.119Z,3.80
2022-12-06T12:07:04.113Z,3.55
2022-12-06T12:09:35.764Z,3.00
2022-12-06T12:12:18.520Z,3.70
2022-12-06T12:14:53.855Z,2.85
2022-12-06T12:17:25.440Z,2.30
2022-12-06T12:19:59.718Z,2.58
2022-12-06T12:22:41.232Z,2.45
2022-12-06T12:25:20.399Z,2.00
2022-12-06T12:27:53.168Z,1.67
2022-12-06T12:30:51.815Z,1.77
2022-12-06T12:33:20.792Z,2.05
2022-12-06T12:36:15.657Z,1.88
2022-12-06T12:38:48.461Z,1.90
2022-12-06T12:41:21.226Z,2.50
2022-12-06T12:44:35.426Z,2.60
2022-12-06T12:46:58.838Z,2.58
2022-12-06T12:49:37.133Z,3.17
2022-12-06T12:52:27.695Z,2.85
2022-12-06T12:55:14.127Z,3.45
2022-12-06T12:57:43.717Z,5.17
2022-12-06T13:00:25.875Z,4.75
2022-12-06T13:02:59.936Z,5.32
2022-12-06T13:05:34.521Z,5.75
2022-12-06T13:08:27.090Z,5.75
2022-12-06T13:10:59.360Z,4.45
2022-12-06T13:13:42.993Z,2.88
2022-12-06T13:16:16.100Z,2.67
2022-12-06T13:18:47.163Z,2.95
2022-12-06T13:21:17.145Z,3.03
2022-12-06T13:23:44.658Z,3.10
2022-12-06T13:26:26.068Z,3.30
2022-12-06T13:29:22.947Z,3.40
2022-12-06T13:31:52.940Z,3.92
2022-12-06T13:34:37.241Z,3.70
2022-12-06T13:37:24.630Z,3.20
2022-12-06T13:42:38.434Z,1.77
2022-12-06T13:47:32.817Z,1.85
2022-12-06T13:50:19.121Z,2.47
2022-12-06T13:52:45.985Z,2.85
2022-12-06T13:55:25.224Z,2.22
2022-12-06T13:57:55.205Z,2.60
2022-12-06T14:00:28.113Z,2.42
2022-12-06T14:03:21.088Z,3.28
2022-12-06T14:06:07.493Z,2.60
2022-12-06T14:08:52.576Z,2.83
2022-12-06T14:11:28.007Z,2.58
2022-12-06T14:14:00.666Z,2.20
2022-12-06T14:16:50.114Z,2.80
2022-12-06T14:19:25.958Z,2.33
2022-12-06T14:21:55.091Z,1.95
2022-12-06T14:24:33.059Z,2.65
2022-12-06T14:27:18.056Z,2.60
2022-12-06T14:30:04.664Z,2.70
2022-12-06T14:32:38.301Z,3.58
2022-12-06T14:35:12.791Z,8.48
2022-12-06T14:37:45.596Z,7.45
2022-12-06T14:40:45.695Z,4.43
2022-12-06T14:43:18.180Z,3.53
2022-12-06T14:45:46.010Z,3.67
2022-12-06T14:48:13.552Z,3.53
2022-12-06T14:50:50.956Z,3.75
2022-12-06T14:53:36.279Z,4.57
2022-12-06T14:56:08.071Z,4.05
2022-12-06T14:58:39.777Z,4.78
2022-12-06T15:01:16.185Z,4.82
2022-12-06T15:03:43.804Z,5.72
2022-12-06T15:06:12.977Z,5.20
2022-12-06T15:08:48.155Z,6.30
2022-12-06T15:11:38.737Z,7.97
2022-12-06T15:14:24.971Z,9.05
2022-12-06T15:17:02.278Z,8.77
2022-12-06T15:19:38.279Z,8.15
2022-12-06T15:22:22.987Z,7.45
2022-12-06T15:24:54.754Z,5.40
2022-12-06T15:27:23.413Z,5.05
2022-12-06T15:29:50.746Z,5.68
2022-12-06T15:32:21.430Z,5.70
2022-12-06T15:34:48.514Z,6.88
2022-12-06T15:40:04.488Z,10.25
2022-12-06T15:42:31.712Z,10.13
2022-12-06T15:44:58.706Z,8.38
2022-12-06T15:47:25.632Z,8.02
2022-12-06T15:49:54.075Z,9.57
2022-12-06T15:52:25.248Z,9.50
2022-12-06T15:54:52.537Z,12.05
2022-12-06T15:57:19.446Z,14.93
2022-12-06T15:59:46.361Z,16.67
2022-12-06T16:02:18.298Z,16.38
2022-12-06T16:04:48.514Z,20.42
2022-12-06T16:07:19.106Z,29.90
2022-12-06T16:09:47.186Z,21.08
2022-12-06T16:12:14.069Z,18.05
2022-12-06T16:14:40.960Z,11.20
2022-12-06T16:17:08.059Z,5.25
2022-12-06T16:20:00.917Z,5.28
2022-12-06T16:22:48.143Z,3.90
2022-12-06T16:25:15.119Z,3.92
2022-12-06T16:27:41.998Z,3.15
2022-12-06T16:30:09.476Z,4.25
2022-12-06T16:32:36.506Z,4.50
2022-12-06T16:35:03.725Z,4.13
2022-12-06T16:37:30.965Z,4.28
2022-12-06T16:39:57.861Z,5.90
2022-12-06T16:42:24.893Z,5.75
2022-12-06T16:44:51.799Z,6.70
2022-12-06T16:49:47.946Z,11.93
2022-12-06T16:52:16.460Z,17.13
2022-12-06T16:54:43.804Z,19.77
2022-12-06T16:57:14.273Z,21.52
2022-12-06T16:59:42.944Z,15.18
2022-12-06T17:02:40.178Z,23.75
2022-12-06T17:05:08.422Z,27.50
2022-12-06T17:07:36.848Z,32.03
2022-12-06T17:10:04.137Z,37.55
2022-12-06T17:12:31.084Z,40.42
2022-12-06T17:14:59.970Z,30.15
2022-12-06T17:17:29.460Z,31.73
2022-12-06T17:19:56.526Z,30.00
2022-12-06T17:22:23.883Z,26.08
2022-12-06T17:24:51.005Z,23.88
2022-12-06T17:27:18.042Z,25.00
2022-12-06T17:29:45.742Z,27.33
2022-12-06T17:32:13.174Z,19.77
2022-12-06T17:34:40.204Z,18.30
2022-12-06T17:37:07.378Z,17.17
2022-12-06T17:39:34.403Z,17.30
2022-12-06T17:42:19.777Z,27.02
2022-12-06T17:44:46.727Z,20.55
2022-12-06T17:47:13.650Z,17.08
2022-12-06T17:49:40.627Z,13.18
2022-12-06T17:52:07.659Z,14.63
2022-12-06T17:54:34.667Z,17.98
2022-12-06T17:57:01.607Z,22.52
2022-12-06T17:59:32.077Z,17.85
2022-12-06T18:02:17.377Z,19.65
2022-12-06T18:04:46.265Z,13.07
2022-12-06T18:07:13.929Z,21.52
2022-12-06T18:09:41.331Z,19.17
2022-12-06T18:12:09.672Z,21.90
2022-12-06T18:14:36.691Z,17.63
2022-12-06T18:17:04.283Z,14.73
2022-12-06T18:19:32.005Z,10.05
2022-12-06T18:21:58.982Z,9.85
2022-12-06T18:24:30.474Z,9.65
2022-12-06T18:27:00.310Z,8.75
2022-12-06T18:29:27.259Z,5.15
2022-12-06T18:31:54.295Z,4.13
2022-12-06T18:34:21.265Z,3.78
2022-12-06T18:36:48.294Z,3.83
2022-12-06T18:39:24.260Z,4.22
2022-12-06T18:41:52.594Z,3.47
2022-12-06T18:44:19.916Z,3.53
2022-12-06T18:46:47.094Z,2.90
2022-12-06T18:49:15.417Z,2.53
2022-12-06T18:51:42.567Z,2.45
2022-12-06T18:54:11.268Z,3.05
2022-12-06T18:56:38.172Z,2.70
2022-12-06T18:59:08.697Z,3.03
2022-12-06T19:01:38.786Z,2.92
2022-12-06T19:04:08.064Z,3.22
2022-12-06T19:06:38.018Z,3.25
2022-12-06T19:09:11.793Z,3.03
2022-12-06T19:11:40.434Z,4.07
2022-12-06T19:14:07.867Z,5.47
2022-12-06T19:16:38.009Z,4.03
2022-12-06T19:19:12.684Z,3.40
2022-12-06T19:21:44.017Z,4.53
2022-12-06T19:24:17.058Z,8.70
2022-12-06T19:26:44.746Z,12.35
2022-12-06T19:29:12.135Z,11.32
2022-12-06T19:31:39.169Z,9.07
2022-12-06T19:34:06.120Z,10.88
2022-12-06T19:36:33.449Z,11.18
2022-12-06T19:39:08.555Z,15.13
2022-12-06T19:41:58.910Z,9.90
2022-12-06T19:44:27.166Z,13.48
2022-12-06T19:46:54.013Z,18.83
2022-12-06T19:49:23.173Z,15.48
2022-12-06T19:51:50.857Z,7.93
2022-12-06T19:54:23.076Z,6.53
2022-12-06T19:56:53.292Z,10.68
2022-12-06T19:59:22.186Z,9.95
2022-12-06T20:01:50.293Z,14.55
2022-12-06T20:04:22.940Z,12.85
2022-12-06T20:06:51.367Z,5.97
2022-12-06T20:09:20.221Z,7.72
2022-12-06T20:12:03.444Z,4.63
2022-12-06T20:14:51.023Z,3.65
2022-12-06T20:17:20.637Z,4.10
2022-12-06T20:19:49.180Z,3.70
2022-12-06T20:22:22.786Z,3.28
2022-12-06T20:24:50.064Z,5.32
2022-12-06T20:27:17.000Z,7.32
2022-12-06T20:29:43.852Z,10.13
2022-12-06T20:32:11.637Z,10.02
2022-12-06T20:34:38.565Z,7.70
2022-12-06T20:37:06.277Z,11.05
2022-12-06T20:39:35.914Z,12.95
2022-12-06T20:42:05.906Z,7.30
2022-12-06T20:44:33.626Z,9.30
2022-12-06T20:47:00.696Z,8.10
2022-12-06T20:49:27.729Z,7.07
2022-12-06T20:51:54.685Z,4.35
2022-12-06T20:54:21.993Z,2.60
2022-12-06T20:56:51.924Z,2.53
2022-12-06T20:59:19.386Z,2.25
2022-12-06T21:01:46.462Z,2.50
2022-12-06T21:04:14.456Z,2.33
2022-12-06T21:06:41.965Z,2.40
2022-12-06T21:09:08.958Z,1.98
2022-12-06T21:11:36.221Z,1.77
2022-12-06T21:14:04.139Z,1.70
2022-12-06T21:16:33.432Z,1.88
2022-12-06T21:19:09.199Z,1.50
2022-12-06T21:21:38.652Z,1.63
2022-12-06T21:24:08.270Z,2.25
2022-12-06T21:26:35.705Z,2.20
2022-12-06T21:29:02.891Z,1.65
2022-12-06T21:31:33.696Z,2.00
2022-12-06T21:34:01.293Z,1.73
2022-12-06T21:36:28.468Z,2.33
2022-12-06T21:38:56.083Z,1.63
2022-12-06T21:41:22.960Z,1.70
2022-12-06T21:43:50.433Z,1.55
2022-12-06T21:46:20.646Z,1.65
2022-12-06T21:48:58.793Z,1.90
2022-12-06T21:51:29.531Z,2.17
2022-12-06T21:53:57.391Z,2.28
2022-12-06T21:56:26.933Z,3.60
2022-12-06T21:58:54.328Z,2.38
2022-12-06T22:01:25.121Z,2.00
2022-12-06T22:03:53.959Z,1.70
2022-12-06T22:06:21.800Z,1.60
2022-12-06T22:08:55.081Z,1.80
2022-12-06T22:11:21.944Z,1.98
2022-12-06T22:13:48.904Z,1.80
2022-12-06T22:16:17.092Z,2.00
2022-12-06T22:18:46.003Z,2.00
2022-12-06T22:21:21.980Z,2.35
2022-12-06T22:23:48.976Z,2.10
2022-12-06T22:26:18.541Z,1.85
2022-12-06T22:28:45.936Z,2.00
2022-12-06T22:31:19.165Z,2.15
2022-12-06T22:33:47.175Z,1.90
2022-12-06T22:36:15.058Z,1.70
2022-12-06T22:38:42.622Z,1.83
2022-12-06T22:41:10.114Z,1.67
2022-12-06T22:43:37.844Z,2.00
2022-12-06T22:46:07.217Z,2.05
2022-12-06T22:48:34.188Z,2.47
2022-12-06T22:51:11.296Z,1.88
2022-12-06T22:53:39.616Z,1.92
2022-12-06T22:56:06.996Z,2.00
2022-12-06T22:58:33.913Z,2.15
2022-12-06T23:01:16.050Z,1.85
2022-12-06T23:03:45.256Z,2.22
2022-12-06T23:06:13.431Z,2.00
2022-12-06T23:08:40.557Z,1.60
2022-12-06T23:11:15.362Z,1.67
2022-12-06T23:13:43.199Z,1.83
2022-12-06T23:16:15.704Z,1.50
2022-12-06T23:18:44.949Z,1.80
2022-12-06T23:21:13.199Z,1.85
2022-12-06T23:23:42.692Z,1.73
2022-12-06T23:26:12.204Z,1.92
2022-12-06T23:28:39.622Z,1.60
2022-12-06T23:31:11.652Z,1.60
2022-12-06T23:33:39.383Z,1.70
2022-12-06T23:36:09.622Z,1.92
2022-12-06T23:38:36.868Z,1.60
2022-12-06T23:41:15.191Z,2.00
2022-12-06T23:43:42.458Z,1.58
2022-12-06T23:46:13.040Z,1.55
2022-12-06T23:48:41.138Z,1.95
2022-12-06T23:51:10.995Z,1.90
2022-12-06T23:53:38.871Z,2.20
2022-12-06T23:56:09.093Z,4.40
2022-12-06T23:58:36.252Z,3.25
